createdAt,value
2017-02-01T00:00:48.652Z,23.2
2017-02-01T00:01:48.587Z,23.21
2017-02-01T00:02:48.528Z,23.27
2017-02-01T00:03:48.461Z,23.24
2017-02-01T00:04:48.400Z,23.18
2017-02-01T00:05:48.335Z,23.24
2017-02-01T00:06:48.273Z,23.21
2017-02-01T00:07:48.251Z,23.24
2017-02-01T00:08:48.150Z,23.24
2017-02-01T00:09:48.083Z,23.21
2017-02-01T00:10:48.020Z,23.17
2017-02-01T00:11:47.958Z,23.23
2017-02-01T00:12:47.898Z,23.17
2017-02-01T00:13:47.442Z,23.25
2017-02-01T00:14:47.765Z,23.24
2017-02-01T00:15:47.711Z,23.24
2017-02-01T00:16:47.642Z,23.18
2017-02-01T00:17:47.583Z,23.25
2017-02-01T00:18:47.528Z,23.23
2017-02-01T00:19:47.455Z,23.25
2017-02-01T00:20:47.392Z,23.27
2017-02-01T00:21:47.328Z,23.23
2017-02-01T00:22:47.269Z,23.25
2017-02-01T00:23:47.204Z,23.25
2017-02-01T00:24:47.137Z,23.17
2017-02-01T00:25:47.072Z,23.28
2017-02-01T00:26:47.014Z,23.21
2017-02-01T00:27:46.949Z,23.21
2017-02-01T00:28:46.889Z,23.18
2017-02-01T00:29:46.824Z,23.24
2017-02-01T00:30:46.760Z,23.2
2017-02-01T00:31:46.695Z,23.24
2017-02-01T00:32:46.638Z,23.23
2017-02-01T00:33:46.577Z,23.25
2017-02-01T00:34:48.389Z,23.25
2017-02-01T00:35:46.450Z,23.24
2017-02-01T00:36:46.387Z,23.21
2017-02-01T00:37:46.469Z,23.27
2017-02-01T00:38:46.286Z,23.24
2017-02-01T00:39:46.197Z,23.2
2017-02-01T00:40:46.387Z,23.23
2017-02-01T00:41:48.141Z,23.23
2017-02-01T00:42:46.006Z,23.21
2017-02-01T00:43:45.940Z,23.2
2017-02-01T00:44:45.876Z,23.17
2017-02-01T00:45:45.817Z,23.17
2017-02-01T00:46:45.759Z,23.28
2017-02-01T00:47:45.690Z,23.23
2017-02-01T00:48:45.628Z,23.2
2017-02-01T00:49:45.569Z,23.21
2017-02-01T00:50:45.501Z,23.18
2017-02-01T00:51:45.439Z,23.23
2017-02-01T00:52:45.377Z,23.15
2017-02-01T00:53:45.313Z,23.13
2017-02-01T00:54:46.451Z,23.18
2017-02-01T00:55:45.187Z,23.21
2017-02-01T00:56:45.122Z,23.23
2017-02-01T00:57:45.063Z,23.23
2017-02-01T00:58:44.993Z,23.25
2017-02-01T00:59:44.933Z,23.23
2017-02-01T01:01:15.509Z,23.21
2017-02-01T01:02:15.421Z,23.17
2017-02-01T01:03:15.357Z,23.23
2017-02-01T01:04:15.298Z,23.25
2017-02-01T01:05:15.233Z,23.27
2017-02-01T01:06:15.170Z,23.17
2017-02-01T01:07:15.107Z,23.27
2017-02-01T01:08:15.041Z,23.2
2017-02-01T01:09:14.978Z,23.21
2017-02-01T01:10:14.916Z,23.27
2017-02-01T01:11:14.850Z,23.18
2017-02-01T01:12:14.788Z,23.23
2017-02-01T01:13:14.730Z,23.21
2017-02-01T01:14:14.664Z,23.27
2017-02-01T01:15:14.604Z,23.21
2017-02-01T01:16:14.147Z,23.25
2017-02-01T01:17:14.476Z,23.18
2017-02-01T01:18:14.412Z,23.23
2017-02-01T01:19:14.350Z,23.25
2017-02-01T01:20:14.589Z,23.25
2017-02-01T01:21:14.228Z,23.24
2017-02-01T01:22:14.155Z,23.25
2017-02-01T01:23:14.098Z,23.21
2017-02-01T01:24:14.036Z,23.18
2017-02-01T01:25:14.218Z,23.28
2017-02-01T01:26:13.909Z,23.21
2017-02-01T01:27:13.453Z,23.23
2017-02-01T01:28:13.780Z,23.23
2017-02-01T01:29:13.719Z,23.21
2017-02-01T01:30:13.275Z,23.21
2017-02-01T01:31:13.591Z,23.21
2017-02-01T01:32:13.531Z,23.25
2017-02-01T01:33:13.081Z,23.21
2017-02-01T01:34:13.426Z,23.18
2017-02-01T01:35:13.338Z,23.18
2017-02-01T01:36:12.909Z,23.25
2017-02-01T01:37:13.214Z,23.2
2017-02-01T01:38:13.148Z,23.2
2017-02-01T01:39:13.091Z,23.27
2017-02-01T01:40:12.638Z,23.24
2017-02-01T01:41:12.177Z,23.25
2017-02-01T01:42:12.899Z,23.21
2017-02-01T01:43:12.834Z,23.23
2017-02-01T01:44:12.380Z,23.27
2017-02-01T01:45:12.706Z,23.21
2017-02-01T01:46:12.249Z,23.25
2017-02-01T01:47:12.578Z,23.25
2017-02-01T01:48:12.517Z,23.23
2017-02-01T01:49:12.455Z,23.2
2017-02-01T01:50:12.392Z,23.23
2017-02-01T01:51:12.326Z,23.23
2017-02-01T01:52:12.264Z,23.2
2017-02-01T01:53:11.813Z,23.2
2017-02-01T01:54:12.172Z,23.21
2017-02-01T01:55:12.079Z,23.21
2017-02-01T01:56:12.014Z,23.23
2017-02-01T01:57:11.949Z,23.23
2017-02-01T01:58:11.885Z,23.2
2017-02-01T01:59:11.823Z,23.24
2017-02-01T02:00:11.760Z,23.25
2017-02-01T02:01:11.694Z,23.17
2017-02-01T02:02:11.658Z,23.23
2017-02-01T02:03:11.577Z,23.23
2017-02-01T02:04:11.528Z,23.25
2017-02-01T02:05:11.445Z,23.21
2017-02-01T02:06:11.004Z,23.23
2017-02-01T02:07:11.318Z,23.21
2017-02-01T02:08:11.256Z,23.21
2017-02-01T02:09:10.804Z,23.21
2017-02-01T02:10:10.748Z,23.25
2017-02-01T02:11:11.069Z,23.27
2017-02-01T02:12:10.614Z,23.28
2017-02-01T02:13:10.989Z,23.21
2017-02-01T02:14:10.488Z,23.21
2017-02-01T02:15:10.815Z,23.24
2017-02-01T02:16:10.768Z,23.18
2017-02-01T02:17:10.687Z,23.27
2017-02-01T02:18:10.633Z,23.2
2017-02-01T02:19:10.562Z,23.21
2017-02-01T02:20:10.501Z,23.2
2017-02-01T02:21:10.043Z,23.23
2017-02-01T02:22:10.373Z,23.27
2017-02-01T02:23:09.922Z,23.23
2017-02-01T02:24:09.857Z,23.17
2017-02-01T02:25:10.183Z,23.23
2017-02-01T02:26:09.732Z,23.21
2017-02-01T02:27:10.060Z,23.2
2017-02-01T02:28:09.610Z,23.23
2017-02-01T02:29:09.543Z,23.25
2017-02-01T02:30:09.479Z,23.25
2017-02-01T02:31:09.809Z,23.18
2017-02-01T02:32:09.744Z,23.24
2017-02-01T02:33:09.294Z,23.21
2017-02-01T02:34:09.618Z,23.21
2017-02-01T02:35:09.555Z,23.24
2017-02-01T02:36:08.711Z,23.18
2017-02-01T02:37:09.431Z,23.23
2017-02-01T02:38:09.369Z,23.25
2017-02-01T02:39:09.303Z,23.24
2017-02-01T02:40:09.240Z,23.25
2017-02-01T02:41:09.181Z,23.24
2017-02-01T02:42:09.125Z,23.2
2017-02-01T02:43:09.057Z,23.24
2017-02-01T02:44:08.993Z,23.23
2017-02-01T02:45:08.927Z,23.25
2017-02-01T02:46:08.864Z,23.18
2017-02-01T02:47:08.799Z,23.27
2017-02-01T02:48:09.957Z,23.2
2017-02-01T02:49:08.675Z,23.23
2017-02-01T02:50:08.219Z,23.2
2017-02-01T02:51:08.551Z,23.23
2017-02-01T02:52:08.490Z,23.18
2017-02-01T02:53:08.426Z,23.23
2017-02-01T02:54:08.368Z,23.23
2017-02-01T02:55:08.296Z,23.21
2017-02-01T02:56:08.238Z,23.25
2017-02-01T02:57:08.175Z,23.25
2017-02-01T02:58:08.106Z,23.23
2017-02-01T02:59:08.046Z,23.2
2017-02-01T03:00:07.990Z,23.21
2017-02-01T03:01:07.919Z,23.23
2017-02-01T03:02:07.465Z,23.2
2017-02-01T03:03:07.799Z,23.25
2017-02-01T03:04:07.732Z,23.28
2017-02-01T03:05:07.665Z,23.27
2017-02-01T03:06:07.606Z,23.25
2017-02-01T03:07:07.154Z,23.2
2017-02-01T03:08:07.483Z,23.23
2017-02-01T03:09:07.425Z,23.23
2017-02-01T03:10:06.964Z,23.24
2017-02-01T03:11:07.292Z,23.2
2017-02-01T03:12:07.227Z,23.24
2017-02-01T03:13:07.162Z,23.23
2017-02-01T03:14:07.107Z,23.23
2017-02-01T03:15:07.048Z,23.21
2017-02-01T03:16:06.585Z,23.27
2017-02-01T03:17:06.923Z,23.25
2017-02-01T03:18:06.850Z,23.24
2017-02-01T03:19:06.791Z,23.18
2017-02-01T03:20:07.024Z,23.25
2017-02-01T03:21:06.689Z,23.23
2017-02-01T03:22:06.628Z,23.18
2017-02-01T03:23:06.542Z,23.18
2017-02-01T03:24:06.474Z,23.23
2017-02-01T03:25:06.714Z,23.24
2017-02-01T03:26:06.346Z,23.21
2017-02-01T03:27:06.284Z,23.24
2017-02-01T03:28:06.224Z,23.23
2017-02-01T03:29:06.168Z,23.23
2017-02-01T03:30:06.096Z,23.24
2017-02-01T03:31:06.057Z,23.18
2017-02-01T03:32:05.971Z,23.24
2017-02-01T03:33:05.912Z,23.21
2017-02-01T03:34:05.849Z,23.21
2017-02-01T03:35:05.392Z,23.24
2017-02-01T03:36:05.718Z,23.2
2017-02-01T03:37:05.655Z,23.17
2017-02-01T03:38:05.206Z,23.21
2017-02-01T03:39:05.529Z,23.18
2017-02-01T03:40:05.471Z,23.17
2017-02-01T03:41:05.404Z,23.25
2017-02-01T03:42:05.344Z,23.24
2017-02-01T03:43:05.285Z,23.2
2017-02-01T03:44:05.219Z,23.24
2017-02-01T03:45:05.168Z,23.18
2017-02-01T03:46:05.092Z,23.23
2017-02-01T03:47:04.639Z,23.25
2017-02-01T03:48:04.979Z,23.21
2017-02-01T03:49:04.899Z,23.18
2017-02-01T03:50:04.846Z,23.21
2017-02-01T03:51:04.777Z,23.21
2017-02-01T03:52:04.711Z,23.24
2017-02-01T03:53:04.650Z,23.27
2017-02-01T03:54:04.586Z,23.24
2017-02-01T03:55:04.524Z,23.24
2017-02-01T03:56:04.457Z,23.25
2017-02-01T03:57:04.399Z,23.25
2017-02-01T03:58:04.335Z,23.28
2017-02-01T03:59:04.294Z,23.25
2017-02-01T04:00:04.249Z,23.23
2017-02-01T04:01:04.143Z,23.27
2017-02-01T04:02:03.697Z,23.21
2017-02-01T04:03:04.019Z,23.25
2017-02-01T04:04:03.959Z,23.23
2017-02-01T04:05:03.899Z,23.23
2017-02-01T04:06:03.834Z,23.21
2017-02-01T04:07:03.769Z,23.25
2017-02-01T04:08:03.705Z,23.21
2017-02-01T04:09:03.646Z,23.23
2017-02-01T04:10:03.581Z,23.23
2017-02-01T04:11:03.518Z,23.23
2017-02-01T04:12:03.456Z,23.18
2017-02-01T04:13:03.394Z,23.23
2017-02-01T04:14:03.332Z,23.23
2017-02-01T04:15:03.265Z,23.24
2017-02-01T04:16:03.202Z,23.24
2017-02-01T04:17:03.139Z,23.21
2017-02-01T04:18:03.076Z,23.2
2017-02-01T04:19:03.016Z,23.21
2017-02-01T04:20:02.953Z,23.21
2017-02-01T04:21:02.889Z,23.18
2017-02-01T04:22:02.853Z,23.17
2017-02-01T04:23:02.764Z,23.2
2017-02-01T04:24:02.700Z,23.23
2017-02-01T04:25:02.636Z,23.2
2017-02-01T04:26:02.574Z,23.27
2017-02-01T04:27:02.513Z,23.25
2017-02-01T04:28:02.469Z,23.2
2017-02-01T04:29:02.385Z,23.25
2017-02-01T04:30:02.332Z,23.25
2017-02-01T04:31:02.257Z,23.23
2017-02-01T04:32:02.193Z,23.23
2017-02-01T04:33:02.131Z,23.25
2017-02-01T04:34:02.069Z,23.18
2017-02-01T04:35:02.011Z,23.21
2017-02-01T04:36:01.944Z,23.2
2017-02-01T04:37:01.880Z,23.23
2017-02-01T04:38:01.818Z,23.25
2017-02-01T04:39:02.962Z,23.2
2017-02-01T04:40:01.689Z,23.25
2017-02-01T04:41:01.630Z,23.23
2017-02-01T04:42:01.564Z,23.24
2017-02-01T04:43:01.504Z,23.23
2017-02-01T04:44:01.440Z,23.24
2017-02-01T04:45:01.379Z,23.21
2017-02-01T04:46:01.314Z,23.24
2017-02-01T04:47:01.250Z,23.24
2017-02-01T04:48:01.187Z,23.23
2017-02-01T04:49:01.125Z,23.18
2017-02-01T04:50:01.063Z,23.18
2017-02-01T04:51:01.007Z,23.25
2017-02-01T04:52:00.937Z,23.28
2017-02-01T04:53:00.492Z,23.2
2017-02-01T04:54:00.423Z,23.28
2017-02-01T04:55:00.747Z,23.2
2017-02-01T04:56:00.682Z,23.24
2017-02-01T04:57:00.625Z,23.25
2017-02-01T04:58:00.559Z,23.21
2017-02-01T04:59:00.496Z,23.25
2017-02-01T05:00:00.438Z,23.18
2017-02-01T05:01:00.373Z,23.21
2017-02-01T05:02:00.309Z,23.24
2017-02-01T05:03:00.244Z,23.13
2017-02-01T05:04:00.184Z,23.23
2017-02-01T05:05:00.117Z,23.2
2017-02-01T05:06:00.054Z,23.24
2017-02-01T05:06:59.994Z,23.2
2017-02-01T05:07:59.932Z,23.27
2017-02-01T05:08:59.865Z,23.2
2017-02-01T05:09:59.804Z,23.17
2017-02-01T05:10:59.742Z,23.12
2017-02-01T05:11:59.696Z,23.17
2017-02-01T05:12:59.615Z,23.1
2017-02-01T05:13:59.555Z,23.21
2017-02-01T05:14:59.498Z,23.17
2017-02-01T05:15:59.428Z,23.12
2017-02-01T05:16:59.365Z,23.2
2017-02-01T05:17:59.298Z,23.2
2017-02-01T05:18:59.239Z,23.13
2017-02-01T05:19:59.173Z,23.24
2017-02-01T05:20:59.114Z,23.17
2017-02-01T05:21:59.047Z,23.18
2017-02-01T05:22:59.016Z,23.17
2017-02-01T05:23:58.925Z,23.24
2017-02-01T05:24:58.869Z,23.24
2017-02-01T05:25:59.049Z,23.18
2017-02-01T05:26:58.730Z,23.24
2017-02-01T05:27:58.683Z,23.23
2017-02-01T05:28:58.609Z,23.23
2017-02-01T05:29:58.546Z,23.24
2017-02-01T05:30:58.493Z,23.24
2017-02-01T05:31:58.025Z,23.21
2017-02-01T05:32:58.354Z,23.25
2017-02-01T05:33:58.295Z,23.23
2017-02-01T05:34:58.228Z,23.24
2017-02-01T05:35:58.170Z,23.15
2017-02-01T05:36:58.107Z,23.23
2017-02-01T05:37:58.037Z,23.21
2017-02-01T05:38:57.981Z,23.24
2017-02-01T05:39:57.912Z,23.2
2017-02-01T05:40:57.848Z,23.25
2017-02-01T05:41:57.791Z,23.2
2017-02-01T05:42:57.725Z,23.31
2017-02-01T05:43:57.666Z,23.24
2017-02-01T05:44:57.604Z,23.24
2017-02-01T05:45:57.536Z,23.24
2017-02-01T05:46:57.476Z,23.17
2017-02-01T05:47:57.409Z,23.23
2017-02-01T05:48:57.349Z,23.21
2017-02-01T05:49:57.288Z,23.25
2017-02-01T05:50:57.223Z,23.21
2017-02-01T05:51:57.158Z,23.18
2017-02-01T05:52:57.096Z,23.2
2017-02-01T05:53:56.646Z,23.23
2017-02-01T05:54:56.974Z,23.21
2017-02-01T05:55:57.058Z,23.24
2017-02-01T05:56:56.841Z,23.21
2017-02-01T05:57:56.777Z,23.23
2017-02-01T05:58:56.714Z,23.2
2017-02-01T05:59:56.653Z,23.23
2017-02-01T06:00:56.588Z,23.24
2017-02-01T06:01:56.532Z,23.25
2017-02-01T06:02:56.472Z,23.25
2017-02-01T06:03:56.401Z,23.24
2017-02-01T06:04:56.342Z,23.24
2017-02-01T06:05:56.274Z,23.23
2017-02-01T06:06:56.216Z,23.21
2017-02-01T06:07:56.151Z,23.2
2017-02-01T06:08:56.087Z,23.24
2017-02-01T06:09:56.058Z,23.21
2017-02-01T06:10:55.956Z,23.21
2017-02-01T06:11:55.898Z,23.15
2017-02-01T06:12:55.832Z,23.23
2017-02-01T06:13:55.770Z,23.2
2017-02-01T06:14:55.708Z,23.24
2017-02-01T06:15:55.647Z,23.24
2017-02-01T06:16:55.581Z,23.21
2017-02-01T06:17:55.518Z,23.23
2017-02-01T06:18:55.457Z,23.28
2017-02-01T06:19:55.392Z,23.23
2017-02-01T06:20:55.328Z,23.21
2017-02-01T06:21:55.263Z,23.13
2017-02-01T06:22:55.204Z,23.24
2017-02-01T06:23:55.163Z,23.18
2017-02-01T06:24:55.080Z,23.23
2017-02-01T06:25:55.014Z,23.21
2017-02-01T06:26:54.950Z,23.21
2017-02-01T06:27:54.887Z,23.28
2017-02-01T06:28:54.828Z,23.18
2017-02-01T06:29:54.759Z,23.2
2017-02-01T06:30:54.699Z,23.24
2017-02-01T06:31:54.636Z,23.23
2017-02-01T06:32:54.571Z,23.24
2017-02-01T06:33:54.512Z,23.21
2017-02-01T06:34:54.445Z,23.25
2017-02-01T06:35:54.390Z,23.17
2017-02-01T06:36:54.319Z,23.23
2017-02-01T06:37:54.253Z,23.18
2017-02-01T06:38:54.194Z,23.25
2017-02-01T06:39:54.130Z,23.21
2017-02-01T06:40:54.070Z,23.23
2017-02-01T06:41:54.004Z,23.21
2017-02-01T06:42:53.939Z,23.2
2017-02-01T06:43:53.876Z,23.24
2017-02-01T06:44:53.815Z,23.24
2017-02-01T06:45:53.750Z,23.18
2017-02-01T06:46:53.690Z,23.25
2017-02-01T06:47:53.624Z,23.23
2017-02-01T06:48:53.566Z,23.15
2017-02-01T06:49:53.500Z,23.21
2017-02-01T06:50:53.438Z,23.24
2017-02-01T06:51:53.374Z,23.2
2017-02-01T06:52:53.308Z,23.2
2017-02-01T06:53:53.248Z,23.2
2017-02-01T06:54:53.189Z,23.12
2017-02-01T06:55:53.120Z,23.21
2017-02-01T06:56:53.065Z,23.23
2017-02-01T06:57:52.993Z,23.23
2017-02-01T06:58:52.934Z,23.17
2017-02-01T06:59:52.880Z,23.2
2017-02-01T07:00:52.805Z,23.2
2017-02-01T07:01:52.740Z,23.23
2017-02-01T07:02:52.677Z,23.21
2017-02-01T07:03:52.618Z,23.15
2017-02-01T07:04:52.582Z,23.17
2017-02-01T07:05:52.494Z,23.27
2017-02-01T07:06:52.428Z,23.23
2017-02-01T07:07:52.366Z,23.15
2017-02-01T07:08:52.307Z,23.21
2017-02-01T07:09:52.236Z,23.18
2017-02-01T07:10:52.184Z,23.27
2017-02-01T07:11:52.117Z,23.2
2017-02-01T07:12:52.046Z,23.2
2017-02-01T07:13:51.984Z,23.24
2017-02-01T07:14:51.923Z,23.24
2017-02-01T07:15:51.861Z,23.18
2017-02-01T07:16:51.794Z,23.23
2017-02-01T07:17:51.732Z,23.18
2017-02-01T07:18:51.672Z,23.17
2017-02-01T07:19:51.607Z,23.13
2017-02-01T07:20:51.544Z,23.18
2017-02-01T07:21:51.486Z,23.21
2017-02-01T07:22:51.429Z,23.21
2017-02-01T07:23:51.353Z,23.17
2017-02-01T07:24:51.296Z,23.2
2017-02-01T07:25:51.228Z,23.21
2017-02-01T07:26:51.165Z,23.13
2017-02-01T07:27:51.103Z,23.15
2017-02-01T07:28:51.042Z,23.18
2017-02-01T07:29:50.975Z,23.24
2017-02-01T07:30:50.913Z,23.13
2017-02-01T07:31:50.850Z,23.25
2017-02-01T07:32:50.790Z,23.17
2017-02-01T07:33:50.725Z,23.23
2017-02-01T07:34:50.661Z,23.23
2017-02-01T07:35:50.600Z,23.15
2017-02-01T07:36:50.538Z,23.2
2017-02-01T07:37:50.474Z,23.21
2017-02-01T07:38:50.415Z,23.17
2017-02-01T07:39:50.377Z,23.2
2017-02-01T07:40:50.362Z,23.2
2017-02-01T07:41:50.298Z,23.21
2017-02-01T07:42:50.201Z,23.24
2017-02-01T07:43:50.110Z,23.23
2017-02-01T07:44:50.063Z,23.23
2017-02-01T07:45:49.579Z,23.23
2017-02-01T07:46:49.915Z,23.21
2017-02-01T07:47:49.883Z,23.18
2017-02-01T07:48:49.875Z,23.21
2017-02-01T07:49:49.723Z,23.21
2017-02-01T07:50:49.666Z,23.27
2017-02-01T07:51:49.307Z,23.21
2017-02-01T07:52:49.612Z,23.21
2017-02-01T07:53:49.493Z,23.23
2017-02-01T07:54:49.456Z,23.2
2017-02-01T07:55:49.354Z,23.18
2017-02-01T07:56:49.313Z,23.21
2017-02-01T07:57:49.215Z,23.21
2017-02-01T07:58:49.150Z,23.2
2017-02-01T07:59:49.101Z,23.18
2017-02-01T08:00:49.067Z,23.23
2017-02-01T08:01:49.001Z,23.24
2017-02-01T08:02:48.934Z,23.17
2017-02-01T08:03:48.836Z,23.21
2017-02-01T08:04:48.782Z,23.18
2017-02-01T08:05:48.727Z,23.18
2017-02-01T08:06:48.666Z,23.18
2017-02-01T08:07:48.622Z,23.24
2017-02-01T08:08:48.520Z,23.24
2017-02-01T08:09:48.100Z,23.23
2017-02-01T08:10:48.407Z,23.23
2017-02-01T08:11:48.339Z,23.24
2017-02-01T08:12:48.266Z,23.18
2017-02-01T08:13:48.205Z,23.13
2017-02-01T08:14:48.145Z,23.2
2017-02-01T08:15:48.082Z,23.18
2017-02-01T08:16:48.017Z,23.18
2017-02-01T08:17:47.955Z,23.24
2017-02-01T08:18:47.890Z,23.21
2017-02-01T08:19:47.831Z,23.23
2017-02-01T08:20:47.766Z,23.23
2017-02-01T08:21:47.711Z,23.21
2017-02-01T08:22:47.638Z,23.21
2017-02-01T08:23:47.576Z,23.23
2017-02-01T08:24:47.120Z,23.23
2017-02-01T08:25:47.702Z,23.23
2017-02-01T08:26:47.386Z,23.18
2017-02-01T08:27:47.322Z,23.23
2017-02-01T08:28:47.259Z,23.18
2017-02-01T08:29:46.819Z,23.23
2017-02-01T08:30:47.394Z,23.27
2017-02-01T08:31:47.078Z,23.24
2017-02-01T08:32:47.017Z,23.21
2017-02-01T08:33:46.958Z,23.23
2017-02-01T08:34:46.895Z,23.25
2017-02-01T08:35:46.823Z,23.15
2017-02-01T08:36:46.756Z,23.18
2017-02-01T08:37:46.693Z,23.23
2017-02-01T08:38:46.627Z,23.15
2017-02-01T08:39:46.564Z,23.21
2017-02-01T08:40:46.803Z,23.15
2017-02-01T08:41:46.439Z,23.2
2017-02-01T08:42:46.378Z,23.24
2017-02-01T08:43:46.313Z,23.23
2017-02-01T08:44:46.256Z,23.2
2017-02-01T08:45:46.437Z,23.17
2017-02-01T08:46:46.127Z,23.18
2017-02-01T08:47:46.060Z,23.25
2017-02-01T08:48:46.000Z,23.21
2017-02-01T08:49:45.943Z,23.25
2017-02-01T08:50:45.879Z,23.21
2017-02-01T08:51:45.808Z,23.21
2017-02-01T08:52:45.745Z,23.18
2017-02-01T08:53:45.683Z,23.21
2017-02-01T08:54:45.621Z,23.21
2017-02-01T08:55:45.557Z,23.27
2017-02-01T08:56:45.498Z,23.21
2017-02-01T08:57:45.438Z,23.25
2017-02-01T08:58:45.369Z,23.25
2017-02-01T08:59:45.306Z,23.23
2017-02-01T09:00:45.494Z,23.23
2017-02-01T09:01:45.181Z,23.28
2017-02-01T09:02:45.120Z,23.2
2017-02-01T09:03:45.058Z,23.17
2017-02-01T09:04:44.996Z,23.25
2017-02-01T09:05:45.278Z,23.18
2017-02-01T09:06:44.876Z,23.21
2017-02-01T09:07:44.802Z,23.21
2017-02-01T09:08:44.742Z,23.23
2017-02-01T09:09:44.676Z,23.21
2017-02-01T09:10:44.610Z,23.15
2017-02-01T09:11:44.551Z,23.23
2017-02-01T09:12:44.518Z,23.21
2017-02-01T09:13:44.420Z,23.25
2017-02-01T09:14:44.360Z,23.27
2017-02-01T09:15:44.311Z,23.23
2017-02-01T09:16:44.241Z,23.25
2017-02-01T09:17:44.175Z,23.23
2017-02-01T09:18:44.121Z,23.18
2017-02-01T09:19:44.045Z,23.21
2017-02-01T09:20:43.982Z,23.21
2017-02-01T09:21:43.916Z,23.21
2017-02-01T09:22:43.899Z,23.24
2017-02-01T09:23:43.792Z,23.2
2017-02-01T09:24:43.727Z,23.23
2017-02-01T09:25:43.669Z,23.23
2017-02-01T09:26:43.604Z,23.23
2017-02-01T09:27:43.538Z,23.15
2017-02-01T09:28:43.481Z,23.21
2017-02-01T09:29:43.412Z,23.23
2017-02-01T09:30:42.961Z,23.15
2017-02-01T09:31:42.899Z,23.23
2017-02-01T09:32:42.836Z,23.18
2017-02-01T09:33:43.266Z,23.2
2017-02-01T09:34:43.167Z,23.23
2017-02-01T09:35:43.043Z,23.21
2017-02-01T09:36:42.974Z,23.23
2017-02-01T09:37:42.911Z,23.2
2017-02-01T09:38:42.844Z,23.21
2017-02-01T09:39:42.786Z,23.24
2017-02-01T09:40:42.722Z,23.21
2017-02-01T09:41:42.660Z,23.23
2017-02-01T09:42:42.611Z,23.23
2017-02-01T09:43:42.532Z,23.23
2017-02-01T09:44:42.469Z,23.25
2017-02-01T09:45:42.856Z,23.24
2017-02-01T09:46:42.342Z,23.24
2017-02-01T09:47:42.280Z,23.21
2017-02-01T09:48:42.218Z,23.18
2017-02-01T09:49:42.154Z,23.21
2017-02-01T09:50:42.092Z,23.15
2017-02-01T09:51:42.028Z,23.2
2017-02-01T09:52:41.966Z,23.2
2017-02-01T09:53:41.902Z,23.24
2017-02-01T09:54:41.849Z,23.28
2017-02-01T09:55:41.776Z,23.23
2017-02-01T09:56:41.715Z,23.28
2017-02-01T09:57:41.677Z,23.24
2017-02-01T09:58:41.588Z,23.25
2017-02-01T09:59:41.526Z,23.2
2017-02-01T10:00:41.671Z,23.2
2017-02-01T10:01:41.408Z,23.25
2017-02-01T10:02:41.341Z,23.2
2017-02-01T10:03:41.274Z,23.23
2017-02-01T10:04:41.213Z,23.23
2017-02-01T10:05:40.807Z,23.23
2017-02-01T10:06:41.123Z,23.25
2017-02-01T10:07:41.020Z,23.24
2017-02-01T10:08:40.591Z,23.21
2017-02-01T10:09:40.899Z,23.18
2017-02-01T10:10:40.831Z,23.2
2017-02-01T10:11:40.770Z,23.18
2017-02-01T10:12:40.703Z,23.23
2017-02-01T10:13:40.642Z,23.28
2017-02-01T10:14:40.583Z,23.24
2017-02-01T10:15:40.519Z,23.2
2017-02-01T10:16:40.451Z,23.24
2017-02-01T10:17:40.394Z,23.27
2017-02-01T10:18:40.334Z,23.21
2017-02-01T10:19:40.266Z,23.21
2017-02-01T10:20:40.234Z,23.21
2017-02-01T10:21:40.139Z,23.23
2017-02-01T10:22:40.074Z,23.2
2017-02-01T10:23:40.091Z,23.23
2017-02-01T10:24:39.946Z,23.23
2017-02-01T10:25:39.893Z,23.15
2017-02-01T10:26:39.822Z,23.24
2017-02-01T10:27:39.762Z,23.24
2017-02-01T10:28:39.703Z,23.21
2017-02-01T10:29:39.250Z,23.23
2017-02-01T10:30:39.569Z,23.17
2017-02-01T10:31:39.509Z,23.24
2017-02-01T10:32:39.446Z,23.23
2017-02-01T10:33:39.386Z,23.23
2017-02-01T10:34:39.321Z,23.17
2017-02-01T10:35:39.558Z,23.24
2017-02-01T10:36:39.198Z,23.21
2017-02-01T10:37:39.130Z,23.21
2017-02-01T10:38:38.881Z,23.24
2017-02-01T10:39:39.070Z,23.24
2017-02-01T10:40:38.953Z,23.25
2017-02-01T10:41:38.890Z,23.24
2017-02-01T10:42:38.818Z,23.21
2017-02-01T10:43:38.754Z,23.24
2017-02-01T10:44:38.691Z,23.31
2017-02-01T10:45:38.878Z,23.23
2017-02-01T10:46:38.175Z,23.23
2017-02-01T10:47:38.505Z,23.23
2017-02-01T10:48:38.444Z,23.24
2017-02-01T10:49:38.373Z,23.23
2017-02-01T10:50:38.228Z,23.23
2017-02-01T10:51:38.249Z,23.23
2017-02-01T10:52:38.185Z,23.25
2017-02-01T10:53:38.127Z,23.25
2017-02-01T10:54:38.068Z,23.23
2017-02-01T10:55:37.998Z,23.21
2017-02-01T10:56:37.934Z,23.25
2017-02-01T10:57:37.877Z,23.2
2017-02-01T10:58:37.811Z,23.18
2017-02-01T10:59:37.742Z,23.24
2017-02-01T11:00:37.692Z,23.24
2017-02-01T11:01:37.619Z,23.2
2017-02-01T11:02:37.557Z,23.24
2017-02-01T11:03:37.494Z,23.2
2017-02-01T11:04:37.429Z,23.21
2017-02-01T11:05:37.367Z,23.23
2017-02-01T11:06:37.302Z,23.13
2017-02-01T11:07:37.240Z,23.31
2017-02-01T11:08:37.208Z,23.21
2017-02-01T11:09:37.119Z,23.27
2017-02-01T11:10:37.051Z,23.2
2017-02-01T11:11:36.985Z,23.23
2017-02-01T11:12:36.928Z,23.2
2017-02-01T11:13:36.861Z,23.2
2017-02-01T11:14:36.798Z,23.27
2017-02-01T11:15:37.038Z,23.23
2017-02-01T11:16:36.284Z,23.25
2017-02-01T11:17:36.608Z,23.17
2017-02-01T11:18:36.547Z,23.25
2017-02-01T11:19:36.483Z,23.21
2017-02-01T11:20:36.419Z,23.21
2017-02-01T11:21:36.353Z,23.24
2017-02-01T11:22:36.296Z,23.25
2017-02-01T11:23:36.230Z,23.15
2017-02-01T11:24:36.165Z,23.25
2017-02-01T11:25:36.103Z,23.25
2017-02-01T11:26:36.045Z,23.25
2017-02-01T11:27:35.978Z,23.21
2017-02-01T11:28:35.914Z,23.25
2017-02-01T11:29:35.850Z,23.24
2017-02-01T11:30:35.795Z,23.24
2017-02-01T11:31:35.732Z,23.25
2017-02-01T11:32:35.673Z,23.25
2017-02-01T11:33:34.824Z,23.24
2017-02-01T11:34:35.151Z,23.18
2017-02-01T11:35:35.475Z,23.23
2017-02-01T11:36:35.410Z,23.2
2017-02-01T11:37:34.958Z,23.24
2017-02-01T11:38:35.284Z,23.2
2017-02-01T11:39:35.221Z,23.21
2017-02-01T11:40:35.159Z,23.2
2017-02-01T11:41:35.098Z,23.25
2017-02-01T11:42:35.036Z,23.18
2017-02-01T11:43:34.969Z,23.23
2017-02-01T11:44:34.905Z,23.2
2017-02-01T11:45:34.847Z,23.24
2017-02-01T11:46:34.782Z,23.23
2017-02-01T11:47:34.723Z,23.25
2017-02-01T11:48:34.655Z,23.23
2017-02-01T11:49:34.589Z,23.27
2017-02-01T11:50:34.533Z,23.23
2017-02-01T11:51:34.463Z,23.27
2017-02-01T11:52:34.400Z,23.25
2017-02-01T11:53:34.341Z,23.24
2017-02-01T11:54:34.276Z,23.13
2017-02-01T11:55:34.213Z,23.25
2017-02-01T11:56:34.150Z,23.23
2017-02-01T11:57:34.091Z,23.23
2017-02-01T11:58:33.631Z,23.27
2017-02-01T11:59:33.960Z,23.25
2017-02-01T12:00:33.896Z,23.23
2017-02-01T12:01:33.837Z,23.24
2017-02-01T12:02:33.779Z,23.23
2017-02-01T12:03:33.736Z,23.2
2017-02-01T12:04:33.645Z,23.24
2017-02-01T12:05:33.191Z,23.21
2017-02-01T12:06:33.157Z,23.2
2017-02-01T12:07:33.455Z,23.21
2017-02-01T12:08:33.393Z,23.24
2017-02-01T12:09:33.331Z,23.18
2017-02-01T12:10:33.269Z,23.2
2017-02-01T12:11:33.200Z,23.17
2017-02-01T12:12:33.151Z,23.2
2017-02-01T12:13:33.080Z,23.12
2017-02-01T12:14:33.016Z,23.05
2017-02-01T12:15:32.957Z,23.02
2017-02-01T12:16:32.888Z,23.03
2017-02-01T12:17:32.827Z,22.96
2017-02-01T12:18:32.758Z,22.98
2017-02-01T12:19:32.696Z,23.02
2017-02-01T12:20:32.251Z,23.02
2017-02-01T12:21:32.579Z,23.02
2017-02-01T12:22:32.510Z,23.03
2017-02-01T12:23:32.447Z,22.99
2017-02-01T12:24:32.386Z,23
2017-02-01T12:25:32.320Z,22.91
2017-02-01T12:26:32.256Z,22.93
2017-02-01T12:27:32.195Z,22.99
2017-02-01T12:28:32.159Z,22.9
2017-02-01T12:29:32.067Z,22.93
2017-02-01T12:30:31.612Z,22.9
2017-02-01T12:31:31.940Z,22.91
2017-02-01T12:32:31.878Z,22.91
2017-02-01T12:33:31.822Z,22.87
2017-02-01T12:34:31.362Z,22.94
2017-02-01T12:35:31.688Z,22.93
2017-02-01T12:36:31.624Z,22.94
2017-02-01T12:37:31.566Z,22.93
2017-02-01T12:38:31.498Z,22.9
2017-02-01T12:39:31.434Z,22.9
2017-02-01T12:40:31.374Z,22.93
2017-02-01T12:41:31.310Z,22.81
2017-02-01T12:42:30.859Z,22.93
2017-02-01T12:43:31.185Z,22.78
2017-02-01T12:44:30.730Z,22.93
2017-02-01T12:45:31.060Z,22.83
2017-02-01T12:46:30.606Z,22.84
2017-02-01T12:47:30.570Z,22.93
2017-02-01T12:48:30.483Z,22.93
2017-02-01T12:49:30.805Z,22.93
2017-02-01T12:50:30.749Z,22.88
2017-02-01T12:51:30.685Z,22.9
2017-02-01T12:52:30.238Z,22.88
2017-02-01T12:53:29.777Z,22.78
2017-02-01T12:54:30.495Z,22.83
2017-02-01T12:55:30.436Z,22.84